sensor_id;sensor_type;location;lat;lon;timestamp;P1;durP1;ratioP1;P2;durP2;ratioP2
23802;SDS011;12082;51.786;6.018;2023-08-06T00:01:14;30.90;;;28.80;;
23802;SDS011;12082;51.786;6.018;2023-08-06T00:03:39;29.83;;;27.50;;
23802;SDS011;12082;51.786;6.018;2023-08-06T00:06:05;29.03;;;27.13;;
23802;SDS011;12082;51.786;6.018;2023-08-06T00:08:31;29.90;;;27.90;;
23802;SDS011;12082;51.786;6.018;2023-08-06T00:10:56;28.87;;;26.80;;
23802;SDS011;12082;51.786;6.018;2023-08-06T00:13:22;29.93;;;28.07;;
23802;SDS011;12082;51.786;6.018;2023-08-06T00:15:47;28.77;;;26.90;;
23802;SDS011;12082;51.786;6.018;2023-08-06T00:18:13;29.63;;;27.77;;
23802;SDS011;12082;51.786;6.018;2023-08-06T00:20:39;28.03;;;26.23;;
23802;SDS011;12082;51.786;6.018;2023-08-06T00:23:05;27.67;;;25.83;;
23802;SDS011;12082;51.786;6.018;2023-08-06T00:25:31;27.03;;;25.23;;
23802;SDS011;12082;51.786;6.018;2023-08-06T00:27:57;30.60;;;28.37;;
23802;SDS011;12082;51.786;6.018;2023-08-06T00:30:22;30.10;;;27.83;;
23802;SDS011;12082;51.786;6.018;2023-08-06T00:32:48;29.30;;;27.30;;
23802;SDS011;12082;51.786;6.018;2023-08-06T00:35:14;27.83;;;25.73;;
23802;SDS011;12082;51.786;6.018;2023-08-06T00:37:39;27.93;;;25.80;;
23802;SDS011;12082;51.786;6.018;2023-08-06T00:40:06;31.83;;;29.43;;
23802;SDS011;12082;51.786;6.018;2023-08-06T00:42:32;32.53;;;30.10;;
23802;SDS011;12082;51.786;6.018;2023-08-06T00:44:59;32.50;;;30.30;;
23802;SDS011;12082;51.786;6.018;2023-08-06T00:47:25;30.03;;;27.83;;
23802;SDS011;12082;51.786;6.018;2023-08-06T00:49:51;32.87;;;30.33;;
23802;SDS011;12082;51.786;6.018;2023-08-06T00:52:16;31.37;;;28.70;;
23802;SDS011;12082;51.786;6.018;2023-08-06T00:54:42;33.37;;;31.07;;
23802;SDS011;12082;51.786;6.018;2023-08-06T00:57:08;30.73;;;28.47;;
23802;SDS011;12082;51.786;6.018;2023-08-06T00:59:34;32.83;;;30.13;;
23802;SDS011;12082;51.786;6.018;2023-08-06T01:02:00;28.67;;;26.67;;
23802;SDS011;12082;51.786;6.018;2023-08-06T01:04:26;29.93;;;27.57;;
23802;SDS011;12082;51.786;6.018;2023-08-06T01:06:55;30.03;;;27.80;;
23802;SDS011;12082;51.786;6.018;2023-08-06T01:09:35;28.73;;;26.83;;
23802;SDS011;12082;51.786;6.018;2023-08-06T01:12:22;32.53;;;30.30;;
23802;SDS011;12082;51.786;6.018;2023-08-06T01:15:18;31.13;;;28.73;;
23802;SDS011;12082;51.786;6.018;2023-08-06T01:17:58;33.10;;;30.80;;
23802;SDS011;12082;51.786;6.018;2023-08-06T01:20:28;31.33;;;28.90;;
23802;SDS011;12082;51.786;6.018;2023-08-06T01:22:54;27.37;;;25.43;;
23802;SDS011;12082;51.786;6.018;2023-08-06T01:25:20;30.40;;;28.10;;
23802;SDS011;12082;51.786;6.018;2023-08-06T01:27:49;30.70;;;28.50;;
23802;SDS011;12082;51.786;6.018;2023-08-06T01:30:28;28.00;;;26.17;;
23802;SDS011;12082;51.786;6.018;2023-08-06T01:33:00;31.77;;;29.30;;
23802;SDS011;12082;51.786;6.018;2023-08-06T01:35:29;29.00;;;27.03;;
23802;SDS011;12082;51.786;6.018;2023-08-06T01:37:55;28.70;;;26.57;;
23802;SDS011;12082;51.786;6.018;2023-08-06T01:40:21;29.57;;;27.40;;
23802;SDS011;12082;51.786;6.018;2023-08-06T01:42:47;26.47;;;24.17;;
23802;SDS011;12082;51.786;6.018;2023-08-06T01:45:12;25.97;;;24.47;;
23802;SDS011;12082;51.786;6.018;2023-08-06T01:47:39;27.43;;;25.43;;
23802;SDS011;12082;51.786;6.018;2023-08-06T01:50:04;24.97;;;23.53;;
23802;SDS011;12082;51.786;6.018;2023-08-06T01:52:30;26.80;;;24.80;;
23802;SDS011;12082;51.786;6.018;2023-08-06T01:54:56;26.00;;;23.80;;
23802;SDS011;12082;51.786;6.018;2023-08-06T01:57:21;26.33;;;24.73;;
23802;SDS011;12082;51.786;6.018;2023-08-06T01:59:47;29.67;;;27.30;;
23802;SDS011;12082;51.786;6.018;2023-08-06T02:02:12;24.50;;;22.73;;
23802;SDS011;12082;51.786;6.018;2023-08-06T02:04:38;27.30;;;25.43;;
23802;SDS011;12082;51.786;6.018;2023-08-06T02:07:04;26.90;;;25.30;;
23802;SDS011;12082;51.786;6.018;2023-08-06T02:09:29;25.70;;;23.70;;
23802;SDS011;12082;51.786;6.018;2023-08-06T02:11:55;27.47;;;25.47;;
23802;SDS011;12082;51.786;6.018;2023-08-06T02:14:20;27.43;;;25.53;;
23802;SDS011;12082;51.786;6.018;2023-08-06T02:16:46;26.57;;;24.87;;
23802;SDS011;12082;51.786;6.018;2023-08-06T02:19:11;28.73;;;27.03;;
23802;SDS011;12082;51.786;6.018;2023-08-06T02:21:37;29.13;;;26.80;;
23802;SDS011;12082;51.786;6.018;2023-08-06T02:24:02;23.73;;;22.13;;
23802;SDS011;12082;51.786;6.018;2023-08-06T02:26:28;27.43;;;25.33;;
23802;SDS011;12082;51.786;6.018;2023-08-06T02:28:54;27.50;;;25.60;;
23802;SDS011;12082;51.786;6.018;2023-08-06T02:31:19;28.07;;;26.30;;
23802;SDS011;12082;51.786;6.018;2023-08-06T02:33:45;25.87;;;24.40;;
23802;SDS011;12082;51.786;6.018;2023-08-06T02:36:10;27.47;;;25.47;;
23802;SDS011;12082;51.786;6.018;2023-08-06T02:38:36;26.70;;;25.00;;
23802;SDS011;12082;51.786;6.018;2023-08-06T02:41:02;29.30;;;26.77;;
23802;SDS011;12082;51.786;6.018;2023-08-06T02:43:28;28.27;;;26.27;;
23802;SDS011;12082;51.786;6.018;2023-08-06T02:45:57;29.93;;;27.93;;
23802;SDS011;12082;51.786;6.018;2023-08-06T02:48:26;28.07;;;25.93;;
23802;SDS011;12082;51.786;6.018;2023-08-06T02:50:52;29.77;;;27.77;;
23802;SDS011;12082;51.786;6.018;2023-08-06T02:53:17;28.37;;;26.33;;
23802;SDS011;12082;51.786;6.018;2023-08-06T02:55:46;29.00;;;27.03;;
23802;SDS011;12082;51.786;6.018;2023-08-06T02:58:13;30.77;;;28.67;;
23802;SDS011;12082;51.786;6.018;2023-08-06T03:00:42;30.40;;;28.13;;
23802;SDS011;12082;51.786;6.018;2023-08-06T03:03:08;27.70;;;25.40;;
23802;SDS011;12082;51.786;6.018;2023-08-06T03:05:34;32.27;;;29.80;;
23802;SDS011;12082;51.786;6.018;2023-08-06T03:08:00;28.13;;;25.93;;
23802;SDS011;12082;51.786;6.018;2023-08-06T03:10:25;30.10;;;27.93;;
23802;SDS011;12082;51.786;6.018;2023-08-06T03:12:51;28.83;;;26.57;;
23802;SDS011;12082;51.786;6.018;2023-08-06T03:15:17;29.93;;;27.33;;
23802;SDS011;12082;51.786;6.018;2023-08-06T03:17:42;33.77;;;30.47;;
23802;SDS011;12082;51.786;6.018;2023-08-06T03:20:09;31.70;;;29.13;;
23802;SDS011;12082;51.786;6.018;2023-08-06T03:22:35;32.23;;;29.73;;
23802;SDS011;12082;51.786;6.018;2023-08-06T03:25:00;32.37;;;29.63;;
23802;SDS011;12082;51.786;6.018;2023-08-06T03:27:26;31.80;;;29.20;;
23802;SDS011;12082;51.786;6.018;2023-08-06T03:29:51;36.33;;;32.83;;
23802;SDS011;12082;51.786;6.018;2023-08-06T03:32:17;31.27;;;28.50;;
23802;SDS011;12082;51.786;6.018;2023-08-06T03:34:42;32.67;;;30.07;;
23802;SDS011;12082;51.786;6.018;2023-08-06T03:37:08;34.10;;;30.63;;
23802;SDS011;12082;51.786;6.018;2023-08-06T03:39:34;34.97;;;31.97;;
23802;SDS011;12082;51.786;6.018;2023-08-06T03:41:59;40.93;;;36.63;;
23802;SDS011;12082;51.786;6.018;2023-08-06T03:44:25;34.33;;;31.37;;
23802;SDS011;12082;51.786;6.018;2023-08-06T03:46:52;31.60;;;28.90;;
23802;SDS011;12082;51.786;6.018;2023-08-06T03:49:17;33.50;;;30.50;;
23802;SDS011;12082;51.786;6.018;2023-08-06T03:51:43;39.47;;;33.13;;
23802;SDS011;12082;51.786;6.018;2023-08-06T03:54:08;39.13;;;35.23;;
23802;SDS011;12082;51.786;6.018;2023-08-06T03:56:34;34.10;;;31.37;;
23802;SDS011;12082;51.786;6.018;2023-08-06T03:58:59;36.03;;;32.80;;
23802;SDS011;12082;51.786;6.018;2023-08-06T04:01:25;35.50;;;32.23;;
23802;SDS011;12082;51.786;6.018;2023-08-06T04:03:50;35.33;;;31.90;;
23802;SDS011;12082;51.786;6.018;2023-08-06T04:06:16;34.53;;;31.53;;
23802;SDS011;12082;51.786;6.018;2023-08-06T04:08:41;34.87;;;31.70;;
23802;SDS011;12082;51.786;6.018;2023-08-06T04:11:07;34.73;;;31.67;;
23802;SDS011;12082;51.786;6.018;2023-08-06T04:13:33;33.20;;;30.07;;
23802;SDS011;12082;51.786;6.018;2023-08-06T04:16:02;34.93;;;31.47;;
23802;SDS011;12082;51.786;6.018;2023-08-06T04:18:28;35.80;;;32.73;;
23802;SDS011;12082;51.786;6.018;2023-08-06T04:20:53;34.60;;;31.67;;
23802;SDS011;12082;51.786;6.018;2023-08-06T04:23:20;34.70;;;31.60;;
23802;SDS011;12082;51.786;6.018;2023-08-06T04:25:45;35.83;;;32.27;;
23802;SDS011;12082;51.786;6.018;2023-08-06T04:28:11;38.67;;;34.73;;
23802;SDS011;12082;51.786;6.018;2023-08-06T04:30:37;34.67;;;31.70;;
23802;SDS011;12082;51.786;6.018;2023-08-06T04:33:03;32.47;;;29.77;;
23802;SDS011;12082;51.786;6.018;2023-08-06T04:35:28;33.23;;;30.23;;
23802;SDS011;12082;51.786;6.018;2023-08-06T04:37:54;35.47;;;32.07;;
23802;SDS011;12082;51.786;6.018;2023-08-06T04:40:19;34.97;;;31.13;;
23802;SDS011;12082;51.786;6.018;2023-08-06T04:42:45;33.50;;;30.57;;
23802;SDS011;12082;51.786;6.018;2023-08-06T04:45:10;37.27;;;33.67;;
23802;SDS011;12082;51.786;6.018;2023-08-06T04:47:36;33.83;;;30.90;;
23802;SDS011;12082;51.786;6.018;2023-08-06T04:50:01;36.40;;;32.97;;
23802;SDS011;12082;51.786;6.018;2023-08-06T04:52:27;33.57;;;30.37;;
23802;SDS011;12082;51.786;6.018;2023-08-06T04:54:53;35.43;;;30.90;;
23802;SDS011;12082;51.786;6.018;2023-08-06T04:57:19;30.77;;;27.83;;
23802;SDS011;12082;51.786;6.018;2023-08-06T04:59:45;33.77;;;30.13;;
23802;SDS011;12082;51.786;6.018;2023-08-06T05:02:11;32.23;;;29.10;;
23802;SDS011;12082;51.786;6.018;2023-08-06T05:04:37;30.33;;;27.63;;
23802;SDS011;12082;51.786;6.018;2023-08-06T05:07:03;31.23;;;27.90;;
23802;SDS011;12082;51.786;6.018;2023-08-06T05:09:28;32.27;;;29.03;;
23802;SDS011;12082;51.786;6.018;2023-08-06T05:11:54;35.23;;;31.43;;
23802;SDS011;12082;51.786;6.018;2023-08-06T05:14:20;34.43;;;31.00;;
23802;SDS011;12082;51.786;6.018;2023-08-06T05:16:45;31.03;;;28.00;;
23802;SDS011;12082;51.786;6.018;2023-08-06T05:19:11;32.40;;;28.87;;
23802;SDS011;12082;51.786;6.018;2023-08-06T05:21:36;32.93;;;27.33;;
23802;SDS011;12082;51.786;6.018;2023-08-06T05:24:02;28.60;;;25.40;;
23802;SDS011;12082;51.786;6.018;2023-08-06T05:26:27;32.40;;;28.83;;
23802;SDS011;12082;51.786;6.018;2023-08-06T05:28:53;33.50;;;30.10;;
23802;SDS011;12082;51.786;6.018;2023-08-06T05:31:18;33.93;;;29.43;;
23802;SDS011;12082;51.786;6.018;2023-08-06T05:33:44;29.50;;;26.70;;
23802;SDS011;12082;51.786;6.018;2023-08-06T05:36:09;31.83;;;28.57;;
23802;SDS011;12082;51.786;6.018;2023-08-06T05:38:35;31.10;;;27.57;;
23802;SDS011;12082;51.786;6.018;2023-08-06T05:41:01;36.00;;;27.27;;
23802;SDS011;12082;51.786;6.018;2023-08-06T05:43:26;29.93;;;26.30;;
23802;SDS011;12082;51.786;6.018;2023-08-06T05:45:52;29.63;;;26.57;;
23802;SDS011;12082;51.786;6.018;2023-08-06T05:48:17;32.27;;;28.93;;
23802;SDS011;12082;51.786;6.018;2023-08-06T05:50:43;28.80;;;25.83;;
23802;SDS011;12082;51.786;6.018;2023-08-06T05:53:08;27.57;;;25.07;;
23802;SDS011;12082;51.786;6.018;2023-08-06T05:55:34;29.10;;;26.10;;
23802;SDS011;12082;51.786;6.018;2023-08-06T05:58:00;29.17;;;26.13;;
23802;SDS011;12082;51.786;6.018;2023-08-06T06:00:26;27.73;;;25.03;;
23802;SDS011;12082;51.786;6.018;2023-08-06T06:02:51;29.93;;;27.13;;
23802;SDS011;12082;51.786;6.018;2023-08-06T06:05:17;35.03;;;25.53;;
23802;SDS011;12082;51.786;6.018;2023-08-06T06:07:42;28.17;;;25.40;;
23802;SDS011;12082;51.786;6.018;2023-08-06T06:10:08;26.27;;;23.97;;
23802;SDS011;12082;51.786;6.018;2023-08-06T06:12:34;31.87;;;26.63;;
23802;SDS011;12082;51.786;6.018;2023-08-06T06:14:59;29.97;;;26.87;;
23802;SDS011;12082;51.786;6.018;2023-08-06T06:17:26;29.67;;;26.50;;
23802;SDS011;12082;51.786;6.018;2023-08-06T06:19:52;30.47;;;27.20;;
23802;SDS011;12082;51.786;6.018;2023-08-06T06:22:17;32.10;;;26.80;;
23802;SDS011;12082;51.786;6.018;2023-08-06T06:24:43;30.53;;;27.53;;
23802;SDS011;12082;51.786;6.018;2023-08-06T06:27:09;30.70;;;27.57;;
23802;SDS011;12082;51.786;6.018;2023-08-06T06:29:34;31.67;;;28.40;;
23802;SDS011;12082;51.786;6.018;2023-08-06T06:32:00;30.03;;;27.23;;
23802;SDS011;12082;51.786;6.018;2023-08-06T06:34:25;31.30;;;28.10;;
23802;SDS011;12082;51.786;6.018;2023-08-06T06:36:51;30.23;;;27.17;;
23802;SDS011;12082;51.786;6.018;2023-08-06T06:39:17;31.20;;;27.17;;
23802;SDS011;12082;51.786;6.018;2023-08-06T06:41:43;32.00;;;27.17;;
23802;SDS011;12082;51.786;6.018;2023-08-06T06:44:09;27.07;;;24.40;;
23802;SDS011;12082;51.786;6.018;2023-08-06T06:46:35;32.07;;;27.57;;
23802;SDS011;12082;51.786;6.018;2023-08-06T06:49:00;28.37;;;25.47;;
23802;SDS011;12082;51.786;6.018;2023-08-06T06:51:26;28.97;;;26.17;;
23802;SDS011;12082;51.786;6.018;2023-08-06T06:53:51;28.47;;;24.60;;
23802;SDS011;12082;51.786;6.018;2023-08-06T06:56:17;26.50;;;23.83;;
23802;SDS011;12082;51.786;6.018;2023-08-06T06:58:43;26.50;;;23.60;;
23802;SDS011;12082;51.786;6.018;2023-08-06T07:01:08;25.97;;;23.37;;
23802;SDS011;12082;51.786;6.018;2023-08-06T07:03:35;27.53;;;24.97;;
23802;SDS011;12082;51.786;6.018;2023-08-06T07:06:01;28.30;;;25.40;;
23802;SDS011;12082;51.786;6.018;2023-08-06T07:08:26;29.23;;;26.10;;
23802;SDS011;12082;51.786;6.018;2023-08-06T07:11:01;26.97;;;24.43;;
23802;SDS011;12082;51.786;6.018;2023-08-06T07:13:28;28.17;;;25.37;;
23802;SDS011;12082;51.786;6.018;2023-08-06T07:15:54;28.33;;;25.27;;
23802;SDS011;12082;51.786;6.018;2023-08-06T07:18:20;29.03;;;26.03;;
23802;SDS011;12082;51.786;6.018;2023-08-06T07:20:49;29.00;;;25.97;;
23802;SDS011;12082;51.786;6.018;2023-08-06T07:23:15;29.40;;;26.10;;
23802;SDS011;12082;51.786;6.018;2023-08-06T07:25:41;25.63;;;22.93;;
23802;SDS011;12082;51.786;6.018;2023-08-06T07:28:06;26.87;;;24.33;;
23802;SDS011;12082;51.786;6.018;2023-08-06T07:30:32;28.97;;;26.07;;
23802;SDS011;12082;51.786;6.018;2023-08-06T07:32:57;27.77;;;25.07;;
23802;SDS011;12082;51.786;6.018;2023-08-06T07:35:23;27.20;;;24.37;;
23802;SDS011;12082;51.786;6.018;2023-08-06T07:37:48;30.17;;;27.07;;
23802;SDS011;12082;51.786;6.018;2023-08-06T07:40:14;34.10;;;29.83;;
23802;SDS011;12082;51.786;6.018;2023-08-06T07:42:40;29.70;;;26.97;;
23802;SDS011;12082;51.786;6.018;2023-08-06T07:45:06;29.60;;;26.63;;
23802;SDS011;12082;51.786;6.018;2023-08-06T07:47:32;30.53;;;26.80;;
23802;SDS011;12082;51.786;6.018;2023-08-06T07:49:58;30.00;;;26.70;;
23802;SDS011;12082;51.786;6.018;2023-08-06T07:52:24;28.37;;;25.63;;
23802;SDS011;12082;51.786;6.018;2023-08-06T07:54:50;27.93;;;25.20;;
23802;SDS011;12082;51.786;6.018;2023-08-06T07:57:15;29.90;;;26.90;;
23802;SDS011;12082;51.786;6.018;2023-08-06T07:59:41;27.80;;;25.10;;
23802;SDS011;12082;51.786;6.018;2023-08-06T08:02:07;25.33;;;22.73;;
23802;SDS011;12082;51.786;6.018;2023-08-06T08:04:33;21.60;;;19.87;;
23802;SDS011;12082;51.786;6.018;2023-08-06T08:06:58;21.93;;;19.87;;
23802;SDS011;12082;51.786;6.018;2023-08-06T08:09:24;20.40;;;18.70;;
23802;SDS011;12082;51.786;6.018;2023-08-06T08:11:49;19.93;;;18.23;;
23802;SDS011;12082;51.786;6.018;2023-08-06T08:14:15;21.50;;;19.60;;
23802;SDS011;12082;51.786;6.018;2023-08-06T08:16:41;18.87;;;17.37;;
23802;SDS011;12082;51.786;6.018;2023-08-06T08:19:06;19.37;;;17.87;;
23802;SDS011;12082;51.786;6.018;2023-08-06T08:21:34;20.63;;;18.67;;
23802;SDS011;12082;51.786;6.018;2023-08-06T08:24:00;18.50;;;16.70;;
23802;SDS011;12082;51.786;6.018;2023-08-06T08:26:26;19.40;;;17.70;;
23802;SDS011;12082;51.786;6.018;2023-08-06T08:28:53;18.40;;;16.80;;
23802;SDS011;12082;51.786;6.018;2023-08-06T08:31:18;15.30;;;14.20;;
23802;SDS011;12082;51.786;6.018;2023-08-06T08:33:44;14.43;;;13.43;;
23802;SDS011;12082;51.786;6.018;2023-08-06T08:36:10;13.77;;;12.77;;
23802;SDS011;12082;51.786;6.018;2023-08-06T08:38:35;13.63;;;12.73;;
23802;SDS011;12082;51.786;6.018;2023-08-06T08:41:01;12.80;;;12.00;;
23802;SDS011;12082;51.786;6.018;2023-08-06T08:43:27;11.23;;;10.53;;
23802;SDS011;12082;51.786;6.018;2023-08-06T08:45:54;10.90;;;10.17;;
23802;SDS011;12082;51.786;6.018;2023-08-06T08:48:24;10.23;;;9.60;;
23802;SDS011;12082;51.786;6.018;2023-08-06T08:50:50;10.27;;;9.67;;
23802;SDS011;12082;51.786;6.018;2023-08-06T08:53:16;10.57;;;9.87;;
23802;SDS011;12082;51.786;6.018;2023-08-06T08:55:43;10.40;;;9.80;;
23802;SDS011;12082;51.786;6.018;2023-08-06T08:58:11;11.00;;;10.30;;
23802;SDS011;12082;51.786;6.018;2023-08-06T09:00:37;11.33;;;10.47;;
23802;SDS011;12082;51.786;6.018;2023-08-06T09:03:06;11.60;;;10.70;;
23802;SDS011;12082;51.786;6.018;2023-08-06T09:05:32;11.70;;;11.07;;
23802;SDS011;12082;51.786;6.018;2023-08-06T09:08:01;12.97;;;12.17;;
23802;SDS011;12082;51.786;6.018;2023-08-06T09:10:28;12.47;;;11.70;;
23802;SDS011;12082;51.786;6.018;2023-08-06T09:12:54;12.30;;;11.60;;
23802;SDS011;12082;51.786;6.018;2023-08-06T09:15:24;12.10;;;11.30;;
23802;SDS011;12082;51.786;6.018;2023-08-06T09:17:51;12.73;;;11.93;;
23802;SDS011;12082;51.786;6.018;2023-08-06T09:20:17;14.10;;;13.00;;
23802;SDS011;12082;51.786;6.018;2023-08-06T09:22:43;13.90;;;12.80;;
23802;SDS011;12082;51.786;6.018;2023-08-06T09:25:10;13.57;;;12.73;;
23802;SDS011;12082;51.786;6.018;2023-08-06T09:27:38;13.83;;;12.93;;
23802;SDS011;12082;51.786;6.018;2023-08-06T09:30:05;14.70;;;13.60;;
23802;SDS011;12082;51.786;6.018;2023-08-06T09:32:44;15.67;;;14.60;;
23802;SDS011;12082;51.786;6.018;2023-08-06T09:35:17;15.53;;;14.53;;
23802;SDS011;12082;51.786;6.018;2023-08-06T09:37:43;14.47;;;13.50;;
23802;SDS011;12082;51.786;6.018;2023-08-06T09:40:26;15.00;;;13.90;;
23802;SDS011;12082;51.786;6.018;2023-08-06T09:42:53;15.43;;;14.23;;
23802;SDS011;12082;51.786;6.018;2023-08-06T09:45:19;14.77;;;13.67;;
23802;SDS011;12082;51.786;6.018;2023-08-06T09:47:46;15.87;;;14.50;;
23802;SDS011;12082;51.786;6.018;2023-08-06T09:50:19;12.80;;;12.00;;
23802;SDS011;12082;51.786;6.018;2023-08-06T09:52:48;12.80;;;12.10;;
23802;SDS011;12082;51.786;6.018;2023-08-06T09:55:14;12.63;;;11.93;;
23802;SDS011;12082;51.786;6.018;2023-08-06T09:57:40;13.33;;;12.70;;
23802;SDS011;12082;51.786;6.018;2023-08-06T10:00:07;13.10;;;12.40;;
23802;SDS011;12082;51.786;6.018;2023-08-06T10:02:40;14.00;;;13.30;;
23802;SDS011;12082;51.786;6.018;2023-08-06T10:05:07;17.93;;;16.47;;
23802;SDS011;12082;51.786;6.018;2023-08-06T10:07:33;15.90;;;14.93;;
23802;SDS011;12082;51.786;6.018;2023-08-06T10:09:59;18.57;;;17.53;;
23802;SDS011;12082;51.786;6.018;2023-08-06T10:12:26;19.37;;;18.37;;
23802;SDS011;12082;51.786;6.018;2023-08-06T10:14:57;19.43;;;18.47;;
23802;SDS011;12082;51.786;6.018;2023-08-06T10:17:26;22.47;;;21.40;;
23802;SDS011;12082;51.786;6.018;2023-08-06T10:19:52;23.87;;;22.50;;
23802;SDS011;12082;51.786;6.018;2023-08-06T10:22:20;24.53;;;23.37;;
23802;SDS011;12082;51.786;6.018;2023-08-06T10:24:49;25.40;;;24.20;;
23802;SDS011;12082;51.786;6.018;2023-08-06T10:27:39;25.60;;;24.27;;
23802;SDS011;12082;51.786;6.018;2023-08-06T10:30:22;29.20;;;27.73;;
23802;SDS011;12082;51.786;6.018;2023-08-06T10:32:52;26.97;;;25.67;;
23802;SDS011;12082;51.786;6.018;2023-08-06T10:35:41;29.27;;;27.67;;
23802;SDS011;12082;51.786;6.018;2023-08-06T10:38:10;29.60;;;28.03;;
23802;SDS011;12082;51.786;6.018;2023-08-06T10:40:40;36.47;;;34.57;;
23802;SDS011;12082;51.786;6.018;2023-08-06T10:43:32;31.30;;;29.73;;
23802;SDS011;12082;51.786;6.018;2023-08-06T10:45:59;88.80;;;83.07;;
23802;SDS011;12082;51.786;6.018;2023-08-06T10:48:37;90.63;;;84.00;;
23802;SDS011;12082;51.786;6.018;2023-08-06T10:51:07;75.83;;;70.60;;
23802;SDS011;12082;51.786;6.018;2023-08-06T10:53:34;34.13;;;32.43;;
23802;SDS011;12082;51.786;6.018;2023-08-06T10:56:00;35.30;;;33.60;;
23802;SDS011;12082;51.786;6.018;2023-08-06T10:58:31;34.13;;;32.53;;
23802;SDS011;12082;51.786;6.018;2023-08-06T11:00:58;35.50;;;33.53;;
23802;SDS011;12082;51.786;6.018;2023-08-06T11:03:24;30.83;;;29.27;;
23802;SDS011;12082;51.786;6.018;2023-08-06T11:05:51;32.23;;;30.63;;
23802;SDS011;12082;51.786;6.018;2023-08-06T11:08:27;36.70;;;34.73;;
23802;SDS011;12082;51.786;6.018;2023-08-06T11:10:54;36.07;;;34.17;;
23802;SDS011;12082;51.786;6.018;2023-08-06T11:13:20;28.60;;;27.20;;
23802;SDS011;12082;51.786;6.018;2023-08-06T11:15:46;33.13;;;31.37;;
23802;SDS011;12082;51.786;6.018;2023-08-06T11:18:12;29.17;;;27.73;;
23802;SDS011;12082;51.786;6.018;2023-08-06T11:20:38;31.17;;;29.53;;
23802;SDS011;12082;51.786;6.018;2023-08-06T11:23:04;30.97;;;29.33;;
23802;SDS011;12082;51.786;6.018;2023-08-06T11:25:30;28.17;;;26.67;;
23802;SDS011;12082;51.786;6.018;2023-08-06T11:27:56;30.27;;;28.63;;
23802;SDS011;12082;51.786;6.018;2023-08-06T11:30:21;30.13;;;28.43;;
23802;SDS011;12082;51.786;6.018;2023-08-06T11:32:47;30.30;;;28.50;;
23802;SDS011;12082;51.786;6.018;2023-08-06T11:35:14;33.70;;;31.47;;
23802;SDS011;12082;51.786;6.018;2023-08-06T11:37:43;30.63;;;28.83;;
23802;SDS011;12082;51.786;6.018;2023-08-06T11:40:10;30.57;;;28.63;;
23802;SDS011;12082;51.786;6.018;2023-08-06T11:42:37;34.00;;;31.80;;
23802;SDS011;12082;51.786;6.018;2023-08-06T11:45:03;32.90;;;30.77;;
23802;SDS011;12082;51.786;6.018;2023-08-06T11:47:29;28.43;;;26.27;;
23802;SDS011;12082;51.786;6.018;2023-08-06T11:49:55;33.27;;;30.87;;
23802;SDS011;12082;51.786;6.018;2023-08-06T11:52:24;29.93;;;27.93;;
23802;SDS011;12082;51.786;6.018;2023-08-06T11:55:03;34.03;;;31.20;;
23802;SDS011;12082;51.786;6.018;2023-08-06T11:57:35;31.80;;;29.30;;
23802;SDS011;12082;51.786;6.018;2023-08-06T12:00:05;37.43;;;35.07;;
23802;SDS011;12082;51.786;6.018;2023-08-06T12:02:32;31.70;;;29.60;;
23802;SDS011;12082;51.786;6.018;2023-08-06T12:05:16;34.07;;;31.83;;
23802;SDS011;12082;51.786;6.018;2023-08-06T12:07:47;31.20;;;29.00;;
23802;SDS011;12082;51.786;6.018;2023-08-06T12:10:13;27.40;;;25.57;;
23802;SDS011;12082;51.786;6.018;2023-08-06T12:12:39;33.10;;;30.87;;
23802;SDS011;12082;51.786;6.018;2023-08-06T12:15:06;32.27;;;30.17;;
23802;SDS011;12082;51.786;6.018;2023-08-06T12:17:33;29.90;;;27.60;;
23802;SDS011;12082;51.786;6.018;2023-08-06T12:19:59;31.50;;;29.17;;
23802;SDS011;12082;51.786;6.018;2023-08-06T12:22:25;31.57;;;29.13;;
23802;SDS011;12082;51.786;6.018;2023-08-06T12:24:50;30.37;;;28.37;;
23802;SDS011;12082;51.786;6.018;2023-08-06T12:27:16;27.30;;;25.37;;
23802;SDS011;12082;51.786;6.018;2023-08-06T12:29:42;28.60;;;26.57;;
23802;SDS011;12082;51.786;6.018;2023-08-06T12:32:11;30.80;;;28.80;;
23802;SDS011;12082;51.786;6.018;2023-08-06T12:34:40;28.43;;;26.33;;
23802;SDS011;12082;51.786;6.018;2023-08-06T12:37:07;29.87;;;27.50;;
23802;SDS011;12082;51.786;6.018;2023-08-06T12:39:34;28.37;;;26.30;;
23802;SDS011;12082;51.786;6.018;2023-08-06T12:42:04;28.47;;;26.57;;
23802;SDS011;12082;51.786;6.018;2023-08-06T12:44:30;29.07;;;26.93;;
23802;SDS011;12082;51.786;6.018;2023-08-06T12:46:56;37.37;;;34.60;;
23802;SDS011;12082;51.786;6.018;2023-08-06T12:49:23;30.87;;;28.47;;
23802;SDS011;12082;51.786;6.018;2023-08-06T12:51:50;30.40;;;28.37;;
23802;SDS011;12082;51.786;6.018;2023-08-06T12:54:19;29.70;;;27.60;;
23802;SDS011;12082;51.786;6.018;2023-08-06T12:56:45;32.97;;;30.27;;
23802;SDS011;12082;51.786;6.018;2023-08-06T12:59:14;30.93;;;28.43;;
23802;SDS011;12082;51.786;6.018;2023-08-06T13:01:41;30.37;;;28.13;;
23802;SDS011;12082;51.786;6.018;2023-08-06T13:04:07;29.27;;;27.27;;
23802;SDS011;12082;51.786;6.018;2023-08-06T13:06:33;26.60;;;24.77;;
23802;SDS011;12082;51.786;6.018;2023-08-06T13:09:02;30.20;;;28.07;;
23802;SDS011;12082;51.786;6.018;2023-08-06T13:11:28;27.13;;;24.93;;
23802;SDS011;12082;51.786;6.018;2023-08-06T13:13:56;28.23;;;26.23;;
23802;SDS011;12082;51.786;6.018;2023-08-06T13:16:32;28.20;;;26.27;;
23802;SDS011;12082;51.786;6.018;2023-08-06T13:18:58;27.27;;;25.57;;
23802;SDS011;12082;51.786;6.018;2023-08-06T13:21:24;29.40;;;27.33;;
23802;SDS011;12082;51.786;6.018;2023-08-06T13:23:55;28.43;;;26.37;;
23802;SDS011;12082;51.786;6.018;2023-08-06T13:26:21;29.60;;;27.43;;
23802;SDS011;12082;51.786;6.018;2023-08-06T13:28:47;29.40;;;27.33;;
23802;SDS011;12082;51.786;6.018;2023-08-06T13:31:14;28.77;;;26.50;;
23802;SDS011;12082;51.786;6.018;2023-08-06T13:33:39;27.33;;;25.63;;
23802;SDS011;12082;51.786;6.018;2023-08-06T13:36:05;30.53;;;28.17;;
23802;SDS011;12082;51.786;6.018;2023-08-06T13:38:30;31.03;;;28.63;;
23802;SDS011;12082;51.786;6.018;2023-08-06T13:40:56;29.43;;;26.90;;
23802;SDS011;12082;51.786;6.018;2023-08-06T13:43:22;28.47;;;26.73;;
23802;SDS011;12082;51.786;6.018;2023-08-06T13:45:49;31.57;;;29.47;;
23802;SDS011;12082;51.786;6.018;2023-08-06T13:48:14;29.17;;;27.20;;
23802;SDS011;12082;51.786;6.018;2023-08-06T13:50:40;28.60;;;26.80;;
23802;SDS011;12082;51.786;6.018;2023-08-06T13:53:06;27.87;;;25.80;;
23802;SDS011;12082;51.786;6.018;2023-08-06T13:55:31;28.67;;;26.67;;
23802;SDS011;12082;51.786;6.018;2023-08-06T13:57:57;25.97;;;24.20;;
23802;SDS011;12082;51.786;6.018;2023-08-06T14:00:22;26.77;;;24.70;;
23802;SDS011;12082;51.786;6.018;2023-08-06T14:02:48;26.70;;;24.80;;
23802;SDS011;12082;51.786;6.018;2023-08-06T14:05:13;25.63;;;23.80;;
23802;SDS011;12082;51.786;6.018;2023-08-06T14:07:39;25.60;;;23.67;;
23802;SDS011;12082;51.786;6.018;2023-08-06T14:10:05;23.23;;;21.43;;
23802;SDS011;12082;51.786;6.018;2023-08-06T14:12:34;23.23;;;21.77;;
23802;SDS011;12082;51.786;6.018;2023-08-06T14:15:00;22.07;;;20.47;;
23802;SDS011;12082;51.786;6.018;2023-08-06T14:17:27;22.03;;;20.00;;
23802;SDS011;12082;51.786;6.018;2023-08-06T14:19:53;22.53;;;21.00;;